This is the latest recevied weather packets stored in our database for station/object SV2RIM-2. If no packets are shown the sender has not sent any weather packets the latest 10 day(s).
| Time | Temp. | Humidity | Pressure | Rain* | Wind** | Luminosity | Snow |
|---|---|---|---|---|---|---|---|
| 1777701619 | 8.89° C | 69% | 1021.7 hPa | 3.81 mm | - | - | - |
| 1777701019 | 8.89° C | 68% | 1021.8 hPa | 3.81 mm | - | - | - |
| 1777700419 | 8.89° C | 69% | 1021.8 hPa | 3.81 mm | - | - | - |
| 1777699819 | 8.89° C | 66% | 1021.8 hPa | 3.81 mm | - | - | - |
| 1777699219 | 10° C | 62% | 1021.7 hPa | 3.81 mm | - | - | - |
| 1777698619 | 7.22° C | 71% | 1021.6 hPa | 3.81 mm | - | - | - |
| 1777698019 | 6.67° C | 72% | 1021.5 hPa | 3.81 mm | - | - | - |
| 1777697419 | 6.67° C | 72% | 1021.5 hPa | 3.81 mm | - | - | - |
| 1777696819 | 6.11° C | 74% | 1021.5 hPa | 3.81 mm | - | - | - |
| 1777696219 | 5.56° C | 74% | 1021.5 hPa | 3.81 mm | - | - | - |
| 1777695619 | 5.56° C | 74% | 1021.5 hPa | 3.81 mm | - | - | - |
| 1777695019 | 5.56° C | 75% | 1021.4 hPa | 3.81 mm | - | - | - |
| 1777694419 | 5° C | 76% | 1021.3 hPa | 3.81 mm | - | - | - |
| 1777693819 | 5° C | 76% | 1021.3 hPa | 3.81 mm | - | - | - |
| 1777693219 | 5° C | 77% | 1021.2 hPa | 3.56 mm | - | - | - |
| 1777692619 | 5.56° C | 77% | 1021.4 hPa | 3.56 mm | - | - | - |
| 1777692019 | 5.56° C | 78% | 1021.3 hPa | 3.56 mm | - | - | - |
| 1777691419 | 5.56° C | 77% | 1021.4 hPa | 3.56 mm | - | - | - |
| 1777690819 | 6.11° C | 76% | 1021.5 hPa | 3.56 mm | - | - | - |
| 1777690219 | 6.11° C | 76% | 1021.6 hPa | 3.3 mm | - | - | - |
| 1777689619 | 6.11° C | 76% | 1021.6 hPa | 2.54 mm | - | - | - |
| 1777689019 | 6.11° C | 76% | 1021.6 hPa | 1.78 mm | - | - | - |
| 1777688419 | 6.11° C | 75% | 1021.6 hPa | 1.02 mm | - | - | - |
| 1777687819 | 6.11° C | 75% | 1021.6 hPa | 0.25 mm | - | - | - |
| 1777687219 | 6.11° C | 74% | 1021.7 hPa | 0.25 mm | - | - | - |
* Rain latest 24 hours (hover to see other rain measurements)
** Current wind speed in m/s (hover to see current wind gust speed)